sensor_id;sensor_type;location;lat;lon;timestamp;temperature;humidity
51825;DHT22;37879;52.986;6.282;2024-03-02T00:00:26;6.90;99.90
51825;DHT22;37879;52.986;6.282;2024-03-02T00:02:52;6.90;99.90
51825;DHT22;37879;52.986;6.282;2024-03-02T00:05:19;6.90;99.90
51825;DHT22;37879;52.986;6.282;2024-03-02T00:07:56;6.90;99.90
51825;DHT22;37879;52.986;6.282;2024-03-02T00:10:26;6.90;99.90
51825;DHT22;37879;52.986;6.282;2024-03-02T00:12:58;7.00;99.90
51825;DHT22;37879;52.986;6.282;2024-03-02T00:17:55;7.00;99.90
51825;DHT22;37879;52.986;6.282;2024-03-02T00:20:25;7.10;99.90
51825;DHT22;37879;52.986;6.282;2024-03-02T00:23:04;7.10;99.90
51825;DHT22;37879;52.986;6.282;2024-03-02T00:26:00;7.10;99.90
51825;DHT22;37879;52.986;6.282;2024-03-02T00:28:33;7.20;99.90
51825;DHT22;37879;52.986;6.282;2024-03-02T00:31:03;7.20;99.90
51825;DHT22;37879;52.986;6.282;2024-03-02T00:33:34;7.30;99.90
51825;DHT22;37879;52.986;6.282;2024-03-02T00:36:02;7.30;99.90
51825;DHT22;37879;52.986;6.282;2024-03-02T00:38:29;7.40;99.90
51825;DHT22;37879;52.986;6.282;2024-03-02T00:40:57;7.40;99.90
51825;DHT22;37879;52.986;6.282;2024-03-02T00:43:57;7.40;99.90
51825;DHT22;37879;52.986;6.282;2024-03-02T00:46:23;7.50;99.90
51825;DHT22;37879;52.986;6.282;2024-03-02T00:49:00;7.50;99.90
51825;DHT22;37879;52.986;6.282;2024-03-02T00:51:29;7.60;99.90
51825;DHT22;37879;52.986;6.282;2024-03-02T00:53:58;7.70;99.90
51825;DHT22;37879;52.986;6.282;2024-03-02T00:56:24;7.70;99.90
51825;DHT22;37879;52.986;6.282;2024-03-02T00:58:51;7.70;99.90
51825;DHT22;37879;52.986;6.282;2024-03-02T01:01:17;7.80;99.90
51825;DHT22;37879;52.986;6.282;2024-03-02T01:03:45;7.80;99.90
51825;DHT22;37879;52.986;6.282;2024-03-02T01:06:11;7.80;99.90
51825;DHT22;37879;52.986;6.282;2024-03-02T01:08:37;7.90;99.90
51825;DHT22;37879;52.986;6.282;2024-03-02T01:11:03;7.90;99.90
51825;DHT22;37879;52.986;6.282;2024-03-02T01:13:30;7.90;99.90
51825;DHT22;37879;52.986;6.282;2024-03-02T01:15:56;7.90;99.90
51825;DHT22;37879;52.986;6.282;2024-03-02T01:18:22;7.90;99.90
51825;DHT22;37879;52.986;6.282;2024-03-02T01:20:48;7.90;99.90
51825;DHT22;37879;52.986;6.282;2024-03-02T01:23:17;7.90;99.90
51825;DHT22;37879;52.986;6.282;2024-03-02T01:25:45;7.90;99.90
51825;DHT22;37879;52.986;6.282;2024-03-02T01:28:11;7.90;99.90
51825;DHT22;37879;52.986;6.282;2024-03-02T01:30:38;7.90;99.90
51825;DHT22;37879;52.986;6.282;2024-03-02T01:33:03;7.90;99.90
51825;DHT22;37879;52.986;6.282;2024-03-02T01:35:31;7.90;99.90
51825;DHT22;37879;52.986;6.282;2024-03-02T01:37:57;7.80;99.90
51825;DHT22;37879;52.986;6.282;2024-03-02T01:40:23;7.90;99.90
51825;DHT22;37879;52.986;6.282;2024-03-02T01:42:52;7.80;99.90
51825;DHT22;37879;52.986;6.282;2024-03-02T01:45:19;7.90;99.90
51825;DHT22;37879;52.986;6.282;2024-03-02T01:47:44;7.90;99.90
51825;DHT22;37879;52.986;6.282;2024-03-02T01:50:11;7.90;99.90
51825;DHT22;37879;52.986;6.282;2024-03-02T01:52:37;7.90;99.90
51825;DHT22;37879;52.986;6.282;2024-03-02T01:55:04;7.90;99.90
51825;DHT22;37879;52.986;6.282;2024-03-02T01:57:29;7.90;99.90
51825;DHT22;37879;52.986;6.282;2024-03-02T01:59:56;7.90;99.90
51825;DHT22;37879;52.986;6.282;2024-03-02T02:02:22;7.90;99.90
51825;DHT22;37879;52.986;6.282;2024-03-02T02:04:48;7.90;99.90
51825;DHT22;37879;52.986;6.282;2024-03-02T02:07:13;7.80;99.90
51825;DHT22;37879;52.986;6.282;2024-03-02T02:09:41;7.80;99.90
51825;DHT22;37879;52.986;6.282;2024-03-02T02:12:08;7.80;99.90
51825;DHT22;37879;52.986;6.282;2024-03-02T02:14:34;7.70;99.90
51825;DHT22;37879;52.986;6.282;2024-03-02T02:17:00;7.80;99.90
51825;DHT22;37879;52.986;6.282;2024-03-02T02:19:25;7.80;99.90
51825;DHT22;37879;52.986;6.282;2024-03-02T02:21:51;7.80;99.90
51825;DHT22;37879;52.986;6.282;2024-03-02T02:24:17;7.80;99.90
51825;DHT22;37879;52.986;6.282;2024-03-02T02:26:42;7.80;99.90
51825;DHT22;37879;52.986;6.282;2024-03-02T02:29:08;7.80;99.90
51825;DHT22;37879;52.986;6.282;2024-03-02T02:31:40;7.80;99.90
51825;DHT22;37879;52.986;6.282;2024-03-02T02:34:06;7.90;99.90
51825;DHT22;37879;52.986;6.282;2024-03-02T02:36:37;7.90;99.90
51825;DHT22;37879;52.986;6.282;2024-03-02T02:39:04;7.90;99.90
51825;DHT22;37879;52.986;6.282;2024-03-02T02:41:32;8.00;99.90
51825;DHT22;37879;52.986;6.282;2024-03-02T02:43:57;7.90;99.90
51825;DHT22;37879;52.986;6.282;2024-03-02T02:46:23;7.90;99.90
51825;DHT22;37879;52.986;6.282;2024-03-02T02:48:49;7.90;99.90
51825;DHT22;37879;52.986;6.282;2024-03-02T02:51:16;7.90;99.90
51825;DHT22;37879;52.986;6.282;2024-03-02T02:53:42;7.90;99.90
51825;DHT22;37879;52.986;6.282;2024-03-02T02:56:08;7.90;99.90
51825;DHT22;37879;52.986;6.282;2024-03-02T02:58:34;7.90;99.90
51825;DHT22;37879;52.986;6.282;2024-03-02T03:01:00;7.90;99.90
51825;DHT22;37879;52.986;6.282;2024-03-02T03:03:25;7.90;99.90
51825;DHT22;37879;52.986;6.282;2024-03-02T03:05:51;7.90;99.90
51825;DHT22;37879;52.986;6.282;2024-03-02T03:08:17;8.10;99.90
51825;DHT22;37879;52.986;6.282;2024-03-02T03:10:42;8.00;99.90
51825;DHT22;37879;52.986;6.282;2024-03-02T03:13:08;8.00;99.90
51825;DHT22;37879;52.986;6.282;2024-03-02T03:15:37;8.00;99.90
51825;DHT22;37879;52.986;6.282;2024-03-02T03:18:04;8.00;99.90
51825;DHT22;37879;52.986;6.282;2024-03-02T03:20:30;7.90;99.90
51825;DHT22;37879;52.986;6.282;2024-03-02T03:22:56;7.90;99.90
51825;DHT22;37879;52.986;6.282;2024-03-02T03:25:22;7.90;99.90
51825;DHT22;37879;52.986;6.282;2024-03-02T03:27:48;7.80;99.90
51825;DHT22;37879;52.986;6.282;2024-03-02T03:30:14;7.80;99.90
51825;DHT22;37879;52.986;6.282;2024-03-02T03:32:40;7.80;99.90
51825;DHT22;37879;52.986;6.282;2024-03-02T03:35:06;7.80;99.90
51825;DHT22;37879;52.986;6.282;2024-03-02T03:37:32;7.80;99.90
51825;DHT22;37879;52.986;6.282;2024-03-02T03:40:02;7.80;99.90
51825;DHT22;37879;52.986;6.282;2024-03-02T03:42:32;7.70;99.90
51825;DHT22;37879;52.986;6.282;2024-03-02T03:44:58;7.80;99.90
51825;DHT22;37879;52.986;6.282;2024-03-02T03:47:23;7.80;99.90
51825;DHT22;37879;52.986;6.282;2024-03-02T03:49:49;7.80;99.90
51825;DHT22;37879;52.986;6.282;2024-03-02T03:52:15;7.80;99.90
51825;DHT22;37879;52.986;6.282;2024-03-02T03:54:40;7.80;99.90
51825;DHT22;37879;52.986;6.282;2024-03-02T03:57:08;7.80;99.90
51825;DHT22;37879;52.986;6.282;2024-03-02T03:59:34;7.70;99.90
51825;DHT22;37879;52.986;6.282;2024-03-02T04:01:59;7.70;99.90
51825;DHT22;37879;52.986;6.282;2024-03-02T04:04:25;7.70;99.90
51825;DHT22;37879;52.986;6.282;2024-03-02T04:06:51;7.70;99.90
51825;DHT22;37879;52.986;6.282;2024-03-02T04:09:16;7.70;99.90
51825;DHT22;37879;52.986;6.282;2024-03-02T04:11:43;7.70;99.90
51825;DHT22;37879;52.986;6.282;2024-03-02T04:14:08;7.70;99.90
51825;DHT22;37879;52.986;6.282;2024-03-02T04:16:34;7.70;99.90
51825;DHT22;37879;52.986;6.282;2024-03-02T04:19:00;7.70;99.90
51825;DHT22;37879;52.986;6.282;2024-03-02T04:21:25;7.60;99.90
51825;DHT22;37879;52.986;6.282;2024-03-02T04:23:51;7.60;99.90
51825;DHT22;37879;52.986;6.282;2024-03-02T04:26:17;7.60;99.90
51825;DHT22;37879;52.986;6.282;2024-03-02T04:28:47;7.60;99.90
51825;DHT22;37879;52.986;6.282;2024-03-02T04:31:14;7.50;99.90
51825;DHT22;37879;52.986;6.282;2024-03-02T04:33:40;7.50;99.90
51825;DHT22;37879;52.986;6.282;2024-03-02T04:36:05;7.50;99.90
51825;DHT22;37879;52.986;6.282;2024-03-02T04:38:34;7.40;99.90
51825;DHT22;37879;52.986;6.282;2024-03-02T04:40:59;7.40;99.90
51825;DHT22;37879;52.986;6.282;2024-03-02T04:43:25;7.40;99.90
51825;DHT22;37879;52.986;6.282;2024-03-02T04:45:51;7.40;99.90
51825;DHT22;37879;52.986;6.282;2024-03-02T04:48:17;5.80;99.90
51825;DHT22;37879;52.986;6.282;2024-03-02T04:50:42;7.40;99.90
51825;DHT22;37879;52.986;6.282;2024-03-02T04:53:08;7.40;99.90
51825;DHT22;37879;52.986;6.282;2024-03-02T04:55:34;7.30;99.90
51825;DHT22;37879;52.986;6.282;2024-03-02T04:57:59;7.30;99.90
51825;DHT22;37879;52.986;6.282;2024-03-02T05:00:25;7.30;99.90
51825;DHT22;37879;52.986;6.282;2024-03-02T05:02:51;7.20;99.90
51825;DHT22;37879;52.986;6.282;2024-03-02T05:05:16;7.20;99.90
51825;DHT22;37879;52.986;6.282;2024-03-02T05:07:42;7.20;99.90
51825;DHT22;37879;52.986;6.282;2024-03-02T05:10:10;7.20;99.90
51825;DHT22;37879;52.986;6.282;2024-03-02T05:12:37;7.20;99.90
51825;DHT22;37879;52.986;6.282;2024-03-02T05:15:15;7.20;99.90
51825;DHT22;37879;52.986;6.282;2024-03-02T05:17:41;7.20;99.90
51825;DHT22;37879;52.986;6.282;2024-03-02T05:20:09;7.20;99.90
51825;DHT22;37879;52.986;6.282;2024-03-02T05:22:35;7.20;99.90
51825;DHT22;37879;52.986;6.282;2024-03-02T05:25:02;7.20;99.90
51825;DHT22;37879;52.986;6.282;2024-03-02T05:27:28;7.10;99.90
51825;DHT22;37879;52.986;6.282;2024-03-02T05:29:53;7.10;99.90
51825;DHT22;37879;52.986;6.282;2024-03-02T05:32:19;7.10;99.90
51825;DHT22;37879;52.986;6.282;2024-03-02T05:34:45;7.00;99.90
51825;DHT22;37879;52.986;6.282;2024-03-02T05:37:11;7.00;99.90
51825;DHT22;37879;52.986;6.282;2024-03-02T05:39:36;7.00;99.90
51825;DHT22;37879;52.986;6.282;2024-03-02T05:42:02;7.00;99.90
51825;DHT22;37879;52.986;6.282;2024-03-02T05:44:29;7.00;99.90
51825;DHT22;37879;52.986;6.282;2024-03-02T05:46:55;7.00;99.90
51825;DHT22;37879;52.986;6.282;2024-03-02T05:49:21;7.00;99.90
51825;DHT22;37879;52.986;6.282;2024-03-02T05:51:47;7.10;99.90
51825;DHT22;37879;52.986;6.282;2024-03-02T05:54:12;7.10;99.90
51825;DHT22;37879;52.986;6.282;2024-03-02T05:56:38;7.00;99.90
51825;DHT22;37879;52.986;6.282;2024-03-02T05:59:04;7.00;99.90
51825;DHT22;37879;52.986;6.282;2024-03-02T06:01:47;7.00;99.90
51825;DHT22;37879;52.986;6.282;2024-03-02T06:04:15;6.90;99.90
51825;DHT22;37879;52.986;6.282;2024-03-02T06:06:41;6.90;99.90
51825;DHT22;37879;52.986;6.282;2024-03-02T06:09:08;6.90;99.90
51825;DHT22;37879;52.986;6.282;2024-03-02T06:11:37;6.90;99.90
51825;DHT22;37879;52.986;6.282;2024-03-02T06:14:07;6.90;99.90
51825;DHT22;37879;52.986;6.282;2024-03-02T06:16:33;7.00;99.90
51825;DHT22;37879;52.986;6.282;2024-03-02T06:19:00;6.90;99.90
51825;DHT22;37879;52.986;6.282;2024-03-02T06:21:27;6.90;99.90
51825;DHT22;37879;52.986;6.282;2024-03-02T06:23:53;6.90;99.90
51825;DHT22;37879;52.986;6.282;2024-03-02T06:26:19;7.10;99.90
51825;DHT22;37879;52.986;6.282;2024-03-02T06:28:45;6.70;99.90
51825;DHT22;37879;52.986;6.282;2024-03-02T06:31:10;6.70;99.90
51825;DHT22;37879;52.986;6.282;2024-03-02T06:33:36;6.60;99.90
51825;DHT22;37879;52.986;6.282;2024-03-02T06:36:03;6.50;99.90
51825;DHT22;37879;52.986;6.282;2024-03-02T06:38:28;6.50;99.90
51825;DHT22;37879;52.986;6.282;2024-03-02T06:40:54;6.40;99.90
51825;DHT22;37879;52.986;6.282;2024-03-02T06:43:22;6.40;99.90
51825;DHT22;37879;52.986;6.282;2024-03-02T06:45:49;6.30;99.90
51825;DHT22;37879;52.986;6.282;2024-03-02T06:48:16;6.20;99.90
51825;DHT22;37879;52.986;6.282;2024-03-02T06:50:46;6.20;99.90
51825;DHT22;37879;52.986;6.282;2024-03-02T06:53:12;6.20;99.90
51825;DHT22;37879;52.986;6.282;2024-03-02T06:55:38;6.10;99.90
51825;DHT22;37879;52.986;6.282;2024-03-02T06:58:03;6.10;99.90
51825;DHT22;37879;52.986;6.282;2024-03-02T07:00:30;6.00;99.90
51825;DHT22;37879;52.986;6.282;2024-03-02T07:02:56;6.00;99.90
51825;DHT22;37879;52.986;6.282;2024-03-02T07:05:21;6.00;99.90
51825;DHT22;37879;52.986;6.282;2024-03-02T07:07:47;6.00;99.90
51825;DHT22;37879;52.986;6.282;2024-03-02T07:10:13;5.90;99.90
51825;DHT22;37879;52.986;6.282;2024-03-02T07:12:38;5.90;99.90
51825;DHT22;37879;52.986;6.282;2024-03-02T07:15:04;5.90;99.90
51825;DHT22;37879;52.986;6.282;2024-03-02T07:17:31;6.00;99.90
51825;DHT22;37879;52.986;6.282;2024-03-02T07:19:57;5.90;99.90
51825;DHT22;37879;52.986;6.282;2024-03-02T07:22:23;6.00;99.90
51825;DHT22;37879;52.986;6.282;2024-03-02T07:24:49;6.00;99.90
51825;DHT22;37879;52.986;6.282;2024-03-02T07:27:16;6.00;99.90
51825;DHT22;37879;52.986;6.282;2024-03-02T07:29:43;6.00;99.90
51825;DHT22;37879;52.986;6.282;2024-03-02T07:32:09;6.10;99.90
51825;DHT22;37879;52.986;6.282;2024-03-02T07:34:35;6.10;99.90
51825;DHT22;37879;52.986;6.282;2024-03-02T07:37:01;6.10;99.90
51825;DHT22;37879;52.986;6.282;2024-03-02T07:39:27;6.20;99.90
51825;DHT22;37879;52.986;6.282;2024-03-02T07:41:52;6.20;99.90
51825;DHT22;37879;52.986;6.282;2024-03-02T07:44:18;6.30;99.90
51825;DHT22;37879;52.986;6.282;2024-03-02T07:46:45;6.30;99.90
51825;DHT22;37879;52.986;6.282;2024-03-02T07:49:20;6.30;99.90
51825;DHT22;37879;52.986;6.282;2024-03-02T07:51:46;6.40;99.90
51825;DHT22;37879;52.986;6.282;2024-03-02T07:54:12;6.40;99.90
51825;DHT22;37879;52.986;6.282;2024-03-02T07:56:38;6.40;99.90
51825;DHT22;37879;52.986;6.282;2024-03-02T07:59:04;6.50;99.90
51825;DHT22;37879;52.986;6.282;2024-03-02T08:01:31;6.50;99.90
51825;DHT22;37879;52.986;6.282;2024-03-02T08:03:57;6.50;99.90
51825;DHT22;37879;52.986;6.282;2024-03-02T08:06:27;6.60;99.90
51825;DHT22;37879;52.986;6.282;2024-03-02T08:08:57;6.80;99.90
51825;DHT22;37879;52.986;6.282;2024-03-02T08:11:23;6.80;99.90
51825;DHT22;37879;52.986;6.282;2024-03-02T08:13:49;6.90;99.90
51825;DHT22;37879;52.986;6.282;2024-03-02T08:16:16;6.90;99.90
51825;DHT22;37879;52.986;6.282;2024-03-02T08:18:45;7.00;99.90
51825;DHT22;37879;52.986;6.282;2024-03-02T08:21:12;7.00;99.90
51825;DHT22;37879;52.986;6.282;2024-03-02T08:23:39;7.10;99.90
51825;DHT22;37879;52.986;6.282;2024-03-02T08:26:06;7.30;99.90
51825;DHT22;37879;52.986;6.282;2024-03-02T08:28:32;7.40;99.90
51825;DHT22;37879;52.986;6.282;2024-03-02T08:30:58;7.50;99.90
51825;DHT22;37879;52.986;6.282;2024-03-02T08:33:24;7.50;99.90
51825;DHT22;37879;52.986;6.282;2024-03-02T08:35:50;7.50;99.90
51825;DHT22;37879;52.986;6.282;2024-03-02T08:38:16;7.50;99.90
51825;DHT22;37879;52.986;6.282;2024-03-02T08:40:41;7.40;99.90
51825;DHT22;37879;52.986;6.282;2024-03-02T08:43:07;7.50;99.90
51825;DHT22;37879;52.986;6.282;2024-03-02T08:45:33;7.50;99.90
51825;DHT22;37879;52.986;6.282;2024-03-02T08:48:00;7.60;99.90
51825;DHT22;37879;52.986;6.282;2024-03-02T08:50:26;7.60;99.90
51825;DHT22;37879;52.986;6.282;2024-03-02T08:52:52;7.70;99.90
51825;DHT22;37879;52.986;6.282;2024-03-02T08:55:17;7.70;99.90
51825;DHT22;37879;52.986;6.282;2024-03-02T08:57:43;7.80;99.90
51825;DHT22;37879;52.986;6.282;2024-03-02T09:00:09;7.90;99.90
51825;DHT22;37879;52.986;6.282;2024-03-02T09:02:35;8.00;99.90
51825;DHT22;37879;52.986;6.282;2024-03-02T09:05:01;8.10;99.90
51825;DHT22;37879;52.986;6.282;2024-03-02T09:07:27;8.20;99.90
51825;DHT22;37879;52.986;6.282;2024-03-02T09:09:53;8.20;99.90
51825;DHT22;37879;52.986;6.282;2024-03-02T09:12:19;8.30;99.90
51825;DHT22;37879;52.986;6.282;2024-03-02T09:14:45;8.40;99.90
51825;DHT22;37879;52.986;6.282;2024-03-02T09:17:12;8.50;99.90
51825;DHT22;37879;52.986;6.282;2024-03-02T09:19:39;8.50;99.90
51825;DHT22;37879;52.986;6.282;2024-03-02T09:22:05;8.60;99.90
51825;DHT22;37879;52.986;6.282;2024-03-02T09:24:31;8.60;99.90
51825;DHT22;37879;52.986;6.282;2024-03-02T09:26:58;8.70;99.90
51825;DHT22;37879;52.986;6.282;2024-03-02T09:29:24;8.80;99.90
51825;DHT22;37879;52.986;6.282;2024-03-02T09:31:50;8.80;99.90
51825;DHT22;37879;52.986;6.282;2024-03-02T09:34:16;8.80;99.90
51825;DHT22;37879;52.986;6.282;2024-03-02T09:36:42;8.90;99.90
51825;DHT22;37879;52.986;6.282;2024-03-02T09:39:08;9.10;99.90
51825;DHT22;37879;52.986;6.282;2024-03-02T09:41:38;9.20;99.90
51825;DHT22;37879;52.986;6.282;2024-03-02T09:44:05;9.20;99.90
51825;DHT22;37879;52.986;6.282;2024-03-02T09:46:33;9.20;99.90
51825;DHT22;37879;52.986;6.282;2024-03-02T09:49:01;9.10;99.90
51825;DHT22;37879;52.986;6.282;2024-03-02T09:51:26;9.20;99.90
51825;DHT22;37879;52.986;6.282;2024-03-02T09:53:52;9.30;99.90
51825;DHT22;37879;52.986;6.282;2024-03-02T09:56:20;9.40;99.90
51825;DHT22;37879;52.986;6.282;2024-03-02T09:58:46;9.40;99.90
51825;DHT22;37879;52.986;6.282;2024-03-02T10:01:11;9.40;99.90
51825;DHT22;37879;52.986;6.282;2024-03-02T10:03:37;9.40;99.90
51825;DHT22;37879;52.986;6.282;2024-03-02T10:06:24;9.40;99.90
51825;DHT22;37879;52.986;6.282;2024-03-02T10:08:50;9.50;99.90
51825;DHT22;37879;52.986;6.282;2024-03-02T10:11:29;9.50;99.90
51825;DHT22;37879;52.986;6.282;2024-03-02T10:16:35;9.60;99.90
51825;DHT22;37879;52.986;6.282;2024-03-02T10:19:22;9.70;99.90
51825;DHT22;37879;52.986;6.282;2024-03-02T10:21:52;9.70;99.90
51825;DHT22;37879;52.986;6.282;2024-03-02T10:24:19;9.70;99.90
51825;DHT22;37879;52.986;6.282;2024-03-02T10:26:46;9.80;99.90
51825;DHT22;37879;52.986;6.282;2024-03-02T10:29:12;10.60;99.90
51825;DHT22;37879;52.986;6.282;2024-03-02T10:31:43;9.80;99.90
51825;DHT22;37879;52.986;6.282;2024-03-02T10:34:10;9.80;99.90
51825;DHT22;37879;52.986;6.282;2024-03-02T10:36:37;9.90;99.90
51825;DHT22;37879;52.986;6.282;2024-03-02T10:39:06;9.90;99.90
51825;DHT22;37879;52.986;6.282;2024-03-02T10:41:36;9.90;99.90
51825;DHT22;37879;52.986;6.282;2024-03-02T10:44:07;10.00;99.90
51825;DHT22;37879;52.986;6.282;2024-03-02T10:46:35;10.00;99.90
51825;DHT22;37879;52.986;6.282;2024-03-02T10:49:03;10.10;99.90
51825;DHT22;37879;52.986;6.282;2024-03-02T10:51:31;10.60;99.90
51825;DHT22;37879;52.986;6.282;2024-03-02T10:54:02;10.10;99.90
51825;DHT22;37879;52.986;6.282;2024-03-02T10:56:34;9.30;99.90
51825;DHT22;37879;52.986;6.282;2024-03-02T11:01:39;10.20;99.90
51825;DHT22;37879;52.986;6.282;2024-03-02T11:04:08;10.30;99.90
51825;DHT22;37879;52.986;6.282;2024-03-02T11:06:36;10.40;99.90
51825;DHT22;37879;52.986;6.282;2024-03-02T11:09:07;10.40;99.90
51825;DHT22;37879;52.986;6.282;2024-03-02T11:11:41;10.40;99.90
51825;DHT22;37879;52.986;6.282;2024-03-02T11:14:13;10.50;99.90
51825;DHT22;37879;52.986;6.282;2024-03-02T11:16:39;9.20;99.90
51825;DHT22;37879;52.986;6.282;2024-03-02T11:19:10;10.60;99.90
51825;DHT22;37879;52.986;6.282;2024-03-02T11:21:36;10.60;99.90
51825;DHT22;37879;52.986;6.282;2024-03-02T11:24:29;10.70;99.90
51825;DHT22;37879;52.986;6.282;2024-03-02T11:27:02;10.80;99.90
51825;DHT22;37879;52.986;6.282;2024-03-02T11:32:13;11.00;99.90
51825;DHT22;37879;52.986;6.282;2024-03-02T11:34:45;11.00;99.90
51825;DHT22;37879;52.986;6.282;2024-03-02T11:37:19;11.10;99.90
51825;DHT22;37879;52.986;6.282;2024-03-02T11:39:50;11.20;99.90
51825;DHT22;37879;52.986;6.282;2024-03-02T11:42:17;11.30;99.90
51825;DHT22;37879;52.986;6.282;2024-03-02T11:44:45;11.30;99.90
51825;DHT22;37879;52.986;6.282;2024-03-02T11:47:15;11.40;99.90
51825;DHT22;37879;52.986;6.282;2024-03-02T11:49:46;11.40;99.90
51825;DHT22;37879;52.986;6.282;2024-03-02T11:52:13;11.40;99.90
51825;DHT22;37879;52.986;6.282;2024-03-02T11:54:44;11.40;99.90
51825;DHT22;37879;52.986;6.282;2024-03-02T11:57:21;11.40;99.90
51825;DHT22;37879;52.986;6.282;2024-03-02T11:59:48;11.50;99.90
51825;DHT22;37879;52.986;6.282;2024-03-02T12:02:21;11.50;99.90
51825;DHT22;37879;52.986;6.282;2024-03-02T12:04:48;11.50;99.90
51825;DHT22;37879;52.986;6.282;2024-03-02T12:07:22;11.50;99.90
51825;DHT22;37879;52.986;6.282;2024-03-02T12:09:49;11.50;99.90
51825;DHT22;37879;52.986;6.282;2024-03-02T12:12:24;11.50;99.90
51825;DHT22;37879;52.986;6.282;2024-03-02T12:14:51;11.50;99.90
51825;DHT22;37879;52.986;6.282;2024-03-02T12:17:18;11.60;99.90
51825;DHT22;37879;52.986;6.282;2024-03-02T12:19:44;11.60;99.90
51825;DHT22;37879;52.986;6.282;2024-03-02T12:22:11;11.70;99.90
51825;DHT22;37879;52.986;6.282;2024-03-02T12:24:37;11.80;99.90
51825;DHT22;37879;52.986;6.282;2024-03-02T12:27:04;11.90;99.90
51825;DHT22;37879;52.986;6.282;2024-03-02T12:29:30;11.90;99.90
51825;DHT22;37879;52.986;6.282;2024-03-02T12:31:56;11.90;99.90
51825;DHT22;37879;52.986;6.282;2024-03-02T12:34:22;11.90;99.90
51825;DHT22;37879;52.986;6.282;2024-03-02T12:36:49;11.90;99.90
51825;DHT22;37879;52.986;6.282;2024-03-02T12:39:20;11.90;99.90
51825;DHT22;37879;52.986;6.282;2024-03-02T12:41:49;12.00;99.90
51825;DHT22;37879;52.986;6.282;2024-03-02T12:44:16;12.00;99.90
51825;DHT22;37879;52.986;6.282;2024-03-02T12:46:42;12.10;99.90
51825;DHT22;37879;52.986;6.282;2024-03-02T12:49:10;12.20;99.90
51825;DHT22;37879;52.986;6.282;2024-03-02T12:51:39;12.20;99.90
51825;DHT22;37879;52.986;6.282;2024-03-02T12:54:07;12.30;99.90
51825;DHT22;37879;52.986;6.282;2024-03-02T12:56:33;12.30;99.90
51825;DHT22;37879;52.986;6.282;2024-03-02T12:58:59;12.30;99.90
51825;DHT22;37879;52.986;6.282;2024-03-02T13:01:25;12.20;99.90
51825;DHT22;37879;52.986;6.282;2024-03-02T13:03:52;12.20;99.90
51825;DHT22;37879;52.986;6.282;2024-03-02T13:06:18;12.30;99.90
51825;DHT22;37879;52.986;6.282;2024-03-02T13:08:45;12.30;99.90
51825;DHT22;37879;52.986;6.282;2024-03-02T13:11:12;12.40;99.90
51825;DHT22;37879;52.986;6.282;2024-03-02T13:13:39;12.50;99.90
51825;DHT22;37879;52.986;6.282;2024-03-02T13:16:12;12.50;99.90
51825;DHT22;37879;52.986;6.282;2024-03-02T13:18:39;12.50;99.90
51825;DHT22;37879;52.986;6.282;2024-03-02T13:21:05;12.60;99.90
51825;DHT22;37879;52.986;6.282;2024-03-02T13:23:31;12.60;99.90
51825;DHT22;37879;52.986;6.282;2024-03-02T13:25:58;12.60;99.90
51825;DHT22;37879;52.986;6.282;2024-03-02T13:28:27;12.60;99.90
51825;DHT22;37879;52.986;6.282;2024-03-02T13:30:53;12.60;99.90
51825;DHT22;37879;52.986;6.282;2024-03-02T13:33:19;12.50;99.90
51825;DHT22;37879;52.986;6.282;2024-03-02T13:35:51;12.50;99.90
51825;DHT22;37879;52.986;6.282;2024-03-02T13:38:18;12.40;99.90
51825;DHT22;37879;52.986;6.282;2024-03-02T13:40:44;12.40;99.90
51825;DHT22;37879;52.986;6.282;2024-03-02T13:43:11;12.30;99.90
51825;DHT22;37879;52.986;6.282;2024-03-02T13:45:38;12.30;99.90
51825;DHT22;37879;52.986;6.282;2024-03-02T13:48:03;12.30;99.90
51825;DHT22;37879;52.986;6.282;2024-03-02T13:50:29;12.30;99.90
51825;DHT22;37879;52.986;6.282;2024-03-02T13:52:56;12.30;99.90
51825;DHT22;37879;52.986;6.282;2024-03-02T13:55:22;12.30;99.90
51825;DHT22;37879;52.986;6.282;2024-03-02T13:57:48;12.30;99.90
51825;DHT22;37879;52.986;6.282;2024-03-02T14:00:16;12.20;99.90
51825;DHT22;37879;52.986;6.282;2024-03-02T14:02:43;12.10;99.90
51825;DHT22;37879;52.986;6.282;2024-03-02T14:05:09;12.10;99.90
51825;DHT22;37879;52.986;6.282;2024-03-02T14:07:37;12.10;99.90
51825;DHT22;37879;52.986;6.282;2024-03-02T14:10:04;12.00;99.90
51825;DHT22;37879;52.986;6.282;2024-03-02T14:12:29;12.10;99.90
51825;DHT22;37879;52.986;6.282;2024-03-02T14:14:56;13.20;99.90
51825;DHT22;37879;52.986;6.282;2024-03-02T14:17:24;12.00;99.90
51825;DHT22;37879;52.986;6.282;2024-03-02T14:19:50;12.10;99.90
51825;DHT22;37879;52.986;6.282;2024-03-02T14:22:17;12.10;99.90
51825;DHT22;37879;52.986;6.282;2024-03-02T14:24:43;12.20;99.90
51825;DHT22;37879;52.986;6.282;2024-03-02T14:27:09;12.20;99.90
51825;DHT22;37879;52.986;6.282;2024-03-02T14:29:35;12.20;99.90
51825;DHT22;37879;52.986;6.282;2024-03-02T14:32:03;12.20;99.90
51825;DHT22;37879;52.986;6.282;2024-03-02T14:34:29;12.30;99.90
51825;DHT22;37879;52.986;6.282;2024-03-02T14:36:55;12.30;99.90
51825;DHT22;37879;52.986;6.282;2024-03-02T14:39:21;12.40;99.90
51825;DHT22;37879;52.986;6.282;2024-03-02T14:41:47;12.40;99.90
51825;DHT22;37879;52.986;6.282;2024-03-02T14:44:12;12.40;99.90
51825;DHT22;37879;52.986;6.282;2024-03-02T14:46:38;12.50;99.90
51825;DHT22;37879;52.986;6.282;2024-03-02T14:49:04;12.50;99.90
51825;DHT22;37879;52.986;6.282;2024-03-02T14:51:30;12.50;99.90
51825;DHT22;37879;52.986;6.282;2024-03-02T14:53:56;12.50;99.90
51825;DHT22;37879;52.986;6.282;2024-03-02T14:56:21;12.50;99.90
51825;DHT22;37879;52.986;6.282;2024-03-02T14:58:47;12.50;99.90
51825;DHT22;37879;52.986;6.282;2024-03-02T15:01:13;12.50;99.90
51825;DHT22;37879;52.986;6.282;2024-03-02T15:03:40;12.50;99.90
51825;DHT22;37879;52.986;6.282;2024-03-02T15:06:06;12.50;99.90
51825;DHT22;37879;52.986;6.282;2024-03-02T15:08:33;12.50;99.90
51825;DHT22;37879;52.986;6.282;2024-03-02T15:10:58;12.40;99.90
51825;DHT22;37879;52.986;6.282;2024-03-02T15:13:26;12.40;99.90
51825;DHT22;37879;52.986;6.282;2024-03-02T15:15:52;12.30;99.90
51825;DHT22;37879;52.986;6.282;2024-03-02T15:18:18;12.30;99.90
51825;DHT22;37879;52.986;6.282;2024-03-02T15:20:44;12.40;99.90
51825;DHT22;37879;52.986;6.282;2024-03-02T15:23:09;12.40;99.90
51825;DHT22;37879;52.986;6.282;2024-03-02T15:25:35;12.40;99.90
51825;DHT22;37879;52.986;6.282;2024-03-02T15:28:01;12.40;99.90
51825;DHT22;37879;52.986;6.282;2024-03-02T15:30:27;12.50;99.90
51825;DHT22;37879;52.986;6.282;2024-03-02T15:32:53;12.50;99.90
51825;DHT22;37879;52.986;6.282;2024-03-02T15:35:18;12.60;99.90
51825;DHT22;37879;52.986;6.282;2024-03-02T15:37:44;12.60;99.90
51825;DHT22;37879;52.986;6.282;2024-03-02T15:40:10;12.60;99.90
51825;DHT22;37879;52.986;6.282;2024-03-02T15:42:36;12.60;99.90
51825;DHT22;37879;52.986;6.282;2024-03-02T15:45:03;12.60;99.90
51825;DHT22;37879;52.986;6.282;2024-03-02T15:47:30;12.70;99.90
51825;DHT22;37879;52.986;6.282;2024-03-02T15:49:55;12.70;99.90